Tiempo atmosférico en la estación meteorológica de Vitigudino, Salamanca (769 m.)



Fecha
DESCASC
Temp. máxima en grados centígrados (hora)
DESCASC
Temp. mínima en grados centígrados (hora)
DESCASC
Temp. media en grados centígrados
DESCASC
Racha de viento máxima en m/sg (hora)
DESCASC
Velocidad máxima media en intervalos de 10 minutos(hora)
DESCASC
Precipitaciones diarias en mm
DESCASC
Precipitaciones de 00:00 a 06:00 en mm
DESCASC
Precipitaciones de 06:00 a 12:00 en mm
DESCASC
Precipitaciones de 12:00 a 18:00 en mm
DESCASC
Precipitaciones de 18:00 a 24:00 en mm
DESCASC
18-04-2019 16.2 (17:10) 6.6 (08:30) 11.4 7.5 (22:30) 3.89 (15:20) 8.6 1.6 0.6 2 4.4
17-04-2019 18.1 (14:50) 8 (08:00) 13.1 14.72 (18:10) 9.72 (18:10) 10.2 0 0 0 10.2
16-04-2019 19.2 (18:10) 1.7 (00:00) 10.5 7.5 (13:50) 4.44 (13:50) 0 0 0 0 0
15-04-2019 18.7 (13:10) 6.3 (00:00) 12.5 17.78 (14:00) 12.22 (14:00) 2.4 0 0 2.2 0.2
14-04-2019 20 (16:00) 10.1 (00:00) 15.1 6.39 (00:10) 4.72 (00:10) 1.2 0 0.2 1 0
13-04-2019 22.1 (17:40) 5.5 (00:00) 13.8 8.61 (19:00) 6.39 (19:00) 0 0 0 0 0
12-04-2019 17.9 (16:40) 2.1 (00:00) 10 6.11 (03:00) 3.06 (06:10) 0 0 0 0 0
11-04-2019 17.2 (11:30) 1.1 (00:00) 9.2 5.83 (02:50) 4.17 (02:50) 0 0 0 0 0
10-04-2019 15.5 (17:10) 4.3 (00:00) 9.9 12.78 (14:10) 8.89 (17:40) 1.4 0.4 0.2 0 0.8
09-04-2019 13.6 (14:30) 3.7 (00:00) 8.7 14.17 (18:10) 9.72 (16:20) 7.2 0.4 6.4 0 0.4
08-04-2019 14.7 (15:20) 5.7 (00:00) 10.2 13.33 (16:10) 8.61 (16:10) 3 2.8 0.2 0 0
07-04-2019 9 (15:20) 1.2 (00:00) 5.1 10.28 (21:00) 6.67 (21:00) 6.6 0 0 2.8 3.8
06-04-2019 10.7 (17:10) 1.7 (00:00) 6.2 16.67 (19:40) 11.39 (12:50) 6.4 0.6 2.6 1.6 1.6
05-04-2019 11.5 (17:00) 1.8 (00:00) 6.6 16.94 (17:30) 11.11 (17:30) 5.2 2 0 0.4 2.8
04-04-2019 13.6 (15:50) -3.7 (-00:0) 5 12.5 (16:40) 7.78 (17:00) 1.6 0 0 0 1.6
03-04-2019 13.2 (15:40) 1.3 (06:10) 7.2 12.22 (17:00) 8.06 (17:10) 0 0 0 0 0
02-04-2019 19.7 (16:20) 5.3 (00:00) 12.5 10 (16:30) 6.11 (16:30) 0 0 0 0 0
01-04-2019 18.5 (16:00) 4.1 (00:00) 11.3 8.61 (18:10) 6.11 (18:20) 0 0 0 0 0
31-03-2019 20.6 (16:00) 3.5 (00:00) 12.1 9.72 (16:10) 6.67 (16:20) 0 0 0 0 0
30-03-2019 21.2 (16:50) 3.2 (00:00) 12.2 5.28 (13:50) 3.06 (18:00) 0 0 0 0 0
29-03-2019 20.1 (16:20) 0.9 (00:00) 10.5 5.83 (12:40) 3.89 (00:40) 0 0 0 0 0
28-03-2019 18.7 (16:40) 0.3 (00:00) 9.5 8.89 (01:40) 6.11 (02:50) 0 0 0 0 0
27-03-2019 18.3 (16:20) 0.2 (00:00) 9.2 10 (02:00) 6.67 (02:00) 0 0 0 0 0
26-03-2019 18.3 (15:50) 1.1 (00:00) 9.7 13.61 (12:20) 8.89 (02:40) 0 0 0 0 0
25-03-2019 18.5 (15:20) 4.2 (00:00) 11.3 12.78 (17:40) 7.78 (18:00) 0 0 0 0 0
24-03-2019 20.2 (16:10) 6 (00:00) 13.1 11.67 (13:30) 7.22 (12:40) 0 0 0 0 0
23-03-2019 20.6 (16:40) 2.6 (00:00) 11.6 8.06 (15:40) 4.72 (15:40) 0 0 0 0 0
22-03-2019 18.2 (15:40) -0.1 (00:00) 9.1 7.5 (17:10) 3.61 (09:40) 0 0 0 0 0
21-03-2019 15.8 (16:20) -1.2 (-00:0) 7.3 7.78 (09:10) 5.28 (04:20) 0 0 0 0 0

Gráficas

Temp. máximas Temp. mínimas Temp. medias Precipitaciones Rachas de viento máximas Velocidades máximas media en intervalos de 10 minutos

Datos horarios

Fecha y hora oficial Temperatura (ºC) Velocidad del viento (km/h) Dirección del viento Racha (km/h) Dirección de racha Precipitación (mm) Presión (hPa) Tendencia (hPa) Humedad (%)
2019-04-19 23:00:00 12.1 24 Nordeste 36 Nordeste 0 929.7 1.4 75
2019-04-19 22:00:00 12.1 20 Nordeste 35 Nordeste 0 929.5 1.9 75
2019-04-19 21:00:00 12.1 21 Nordeste 42 Nordeste 0 929 1.7 74
2019-04-19 20:00:00 13.1 22 Nordeste 39 Nordeste 0 928.3 1.1 68
2019-04-19 19:00:00 14.3 24 Nordeste 37 Este 0 927.6 0.1 59
2019-04-19 18:00:00 15.5 23 Este 36 Este 0 927.3 0.1 55
2019-04-19 17:00:00 16.2 24 Este 37 Este 0 927.2 -0.1 50
2019-04-19 16:00:00 14.8 24 Este 41 Este 0 927.5 0 56
2019-04-19 15:00:00 14.9 24 Este 40 Nordeste 0 927.2 0.1 58
2019-04-19 14:00:00 15.4 25 Este 41 Nordeste 0 927.3 0.8 57
2019-04-19 13:00:00 12.7 18 Este 35 Este 0 927.5 1.7 73
2019-04-19 12:00:00 13 18 Este 30 Este 0 927.1 2 71
2019-04-19 11:00:00 11.4 17 Este 28 Este 0 926.5 2.2 81
2019-04-19 10:00:00 9.5 11 Este 18 Este 0 925.8 2.1 88
2019-04-19 09:00:00 8.1 8 Sudeste 14 Sudeste 0.2 925.1 1.7 93
2019-04-19 08:00:00 7.8 6 Sudeste 11 Sudeste 1 924.3 0.5 94
2019-04-19 07:00:00 7.7 5 Norte 12 Norte 1.2 923.7 -0.3 94
2019-04-19 06:00:00 8 6 Norte 17 Oeste 2 923.4 -0.9 94
2019-04-19 05:00:00 7.7 8 Oeste 19 Oeste 4 923.8 -1.1 94
2019-04-19 04:00:00 7.8 13 Oeste 19 Oeste 0.6 924 -1.5 94
2019-04-19 03:00:00 7.8 9 Sudoeste 13 Sudoeste 0.4 924.3 -1.2 93
2019-04-19 02:00:00 7.8 8 Oeste 11 Noroeste 1.2 924.9 -0.4 92
2019-04-19 01:00:00 8.1 8 Noroeste 16 Noroeste 1.8 925.5 0.8 91
2019-04-19 00:00:00 8.2 5 Norte 13 Nordeste 0.4 925.5 1.4 90
2019-04-18 23:00:00 8.2 8 Oeste 27 Norte 2.6 925.3 1.9 88
2019-04-18 22:00:00 9.5 6 Sur 21 Sudeste 0 924.7 1.7 83
2019-04-18 21:00:00 10.4 14 Sudeste 24 Este 1.4 924.1 1.1 76
2019-04-18 20:00:00 14.3 8 Nordeste 13 Norte 0 923.4 0.3 52
2019-04-18 19:00:00 15.2 7 Norte 17 Nordeste 0 923 -0.6 50
2019-04-18 18:00:00 15.3 5 Nordeste 18 Noroeste 0.2 923 -1 51
2019-04-18 17:00:00 15.6 9 Norte 18 Nordeste 0 923.1 -1 49
2019-04-18 16:00:00 14.2 10 Nordeste 21 Nordeste 0 923.6 -0.7 60
2019-04-18 15:00:00 12.8 12 Nordeste 20 Nordeste 0 924 -0.5 70
2019-04-18 14:00:00 11.9 12 Nordeste 21 Nordeste 0 924.1 -0.2 68
2019-04-18 13:00:00 12 7 Nordeste 23 Sur 1.8 924.3 0.1 78
2019-04-18 12:00:00 11.3 3 Este 11 Este 0 924.5 0.6 72
2019-04-18 11:00:00 10.8 5 Sudeste 12 Sudeste 0 924.3 0.9 73
2019-04-18 10:00:00 10.1 5 Sur 10 Sudeste 0 924.2 1 83
2019-04-18 09:00:00 7.3 4 Sur 10 Sur 0.2 923.9 0.9 92
2019-04-18 08:00:00 7 5 Sur 14 Sur 0 923.4 0.6 92
2019-04-18 07:00:00 7.4 7 Sudeste 13 Sur 0.4 923.2 0.5 92
2019-04-18 06:00:00 7.7 6 Sur 18 Sur 0 923 0 92
2019-04-18 05:00:00 7.5 9 Sur 21 Sur 0 922.8 -0.3 92
2019-04-18 04:00:00 8.1 10 Sur 19 Sur 0 922.7 0 93
2019-04-18 03:00:00 8.2 7 Sur 17 Sur 0.2 923 0.7 93
2019-04-18 02:00:00 8.3 11 Sur 22 Sur 0.6 923.1 1.3 92
2019-04-18 01:00:00 8.4 9 Sur 21 Sudoeste 0.8 922.7 1.7 92
2019-04-18 00:00:00 8.4 13 Sudoeste 23 Sur 0.4 922.3 2.1 92
2019-04-17 23:00:00 8.8 11 Sur 25 Sur 0 921.8 1.6 91
2019-04-17 22:00:00 8.9 10 Sur 25 Sur 1.6 921 0.9 91
2019-04-17 21:00:00 9 11 Sur 21 Sur 2.4 920.2 1.3 91
2019-04-17 20:00:00 9.7 6 Sur 26 Sudoeste 3.8 920.2 1.5 91
2019-04-17 19:00:00 10.3 17 Sudoeste 53 Sudoeste 2 920.1 1.1 89
2019-04-17 18:00:00 15.5 21 Sur 46 Sur 0 918.9 -0.6 51
2019-04-17 17:00:00 16.4 25 Sur 46 Sur 0 918.7 -1.7 45
2019-04-17 16:00:00 17.8 23 Sur 48 Sur 0 919 -2.1 44
2019-04-17 15:00:00 17.7 24 Sur 43 Sudeste 0 919.5 -2.1 39
2019-04-17 14:00:00 15.5 18 Sur 36 Sur 0 920.4 -1 51
2019-04-17 13:00:00 13.7 14 Sur 31 Sudeste 0 921.1 -0.1 56
2019-04-17 12:00:00 13.1 9 Sur 27 Sur 0 921.6 0.6 58
2019-04-17 11:00:00 12.8 14 Sur 25 Sudoeste 0 921.4 0.6 61
2019-04-17 10:00:00 12.6 15 Sudoeste 24 Sudoeste 0 921.2 0.8 60
2019-04-17 09:00:00 9.5 4 Sudeste 11 Sudoeste 0 921 0.4 69
2019-04-17 08:00:00 8 7 Sur 12 Sudoeste 0 920.8 -0.5 68
2019-04-17 07:00:00 9.5 5 Sur 19 Sur 0 920.4 -1.1 60
2019-04-17 06:00:00 9.9 5 Sudeste 15 Sudoeste 0 920.6 -1.2 57
2019-04-17 05:00:00 10.9 10 Sudoeste 19 Sudoeste 0 921.3 -1 55
2019-04-17 04:00:00 12.7 9 Sur 18 Sudeste 0 921.5 -0.8 52
2019-04-17 03:00:00 12.6 11 Sudeste 19 Este 0 921.8 -1.6 52
2019-04-17 02:00:00 11.5 9 Sudeste 18 Este 0 922.3 -1.7 57
2019-04-17 01:00:00 11.6 13 Este 22 Este 0 922.3 -1.9 59
2019-04-17 00:00:00 11.3 13 Este 17 Este 0 923.4 -1.1 62
2019-04-16 23:00:00 11.7 7 Este 15 Sur 0 924 -0.6 60
2019-04-16 22:00:00 13.9 6 Sudeste 12 Sudeste 0 924.2 -0.8 51
2019-04-16 21:00:00 15.1 5 Sudeste 13 Sur 0 924.5 -1 50
2019-04-16 20:00:00 16.8 6 Sur 21 Sudoeste 0 924.6 -1.3 43
2019-04-16 19:00:00 18.1 8 Sur 25 Sudoeste 0 925 -1.5 32
2019-04-16 18:00:00 19.1 9 Sur 18 Sudoeste 0 925.5 -1.7 33
2019-04-16 17:00:00 18.4 8 Sur 21 Sur 0 925.9 -2 33
2019-04-16 16:00:00 18.2 12 Sur 25 Sudoeste 0 926.5 -2.1 36
2019-04-16 15:00:00 17.9 13 Sur 26 Sudoeste 0 927.2 -1.7 36
2019-04-16 14:00:00 16.9 14 Sudoeste 27 Sudoeste 0 927.9 -0.9 44
2019-04-16 13:00:00 15.4 12 Sur 23 Sudoeste 0 928.6 -0.4 49
2019-04-16 12:00:00 13.9 8 Sudeste 21 Este 0 928.9 -0.1 60
2019-04-16 11:00:00 11.7 12 Este 21 Este 0 928.8 -0.4 70
2019-04-16 10:00:00 9.2 10 Este 16 Este 0 929 -0.2 83
2019-04-16 09:00:00 5.1 8 Este 12 Este 0 929 -0.5 95
2019-04-16 08:00:00 2.2 3 Este 9 Este 0 929.2 -0.3 95
2019-04-16 07:00:00 2.2 4 Este 7 Nordeste 0 929.2 0 94
2019-04-16 06:00:00 2.3 3 Sudeste 7 Este 0 929.5 -0.4 93
2019-04-16 05:00:00 2.9 4 Sudeste 7 Sur 0 929.5 0.2 93
2019-04-16 04:00:00 2.9 4 Sur 8 Sudoeste 0 929.2 -0.3 91
2019-04-16 03:00:00 3.6 4 Sur 9 Sudoeste 0 929.9 0.6 90
2019-04-16 02:00:00 4.8 6 Noroeste 11 Noroeste 0 929.3 0.7 90
2019-04-16 01:00:00 5.2 0 Calma 8 Sudoeste 0 929.5 1.7 87
2019-04-16 00:00:00 6.3 4 Sudoeste 17 Oeste 0 929.3 2.6 85
2019-04-15 23:00:00 7.4 11 Oeste 21 Oeste 0 928.6 2.3 82
2019-04-15 22:00:00 9.1 19 Oeste 29 Oeste 0.2 927.8 2.2 77
2019-04-15 21:00:00 10.8 12 Oeste 23 Oeste 0 926.7 1.6 83
2019-04-15 20:00:00 12 13 Oeste 31 Oeste 0 926.3 1.3 77
2019-04-15 19:00:00 13 15 Sudoeste 32 Sudoeste 0 925.6 0.6 76
2019-04-15 18:00:00 14.1 16 Sudoeste 28 Sudoeste 0 925.1 0.5 72
2019-04-15 17:00:00 13.2 16 Sudoeste 29 Oeste 1 925 1.1 82
2019-04-15 16:00:00 10.5 14 Sudoeste 50 Oeste 1.2 925 1.5 84
2019-04-15 15:00:00 14.9 38 Oeste 62 Oeste 0 924.6 1.2 53
2019-04-15 14:00:00 14.5 44 Oeste 64 Oeste 0 923.9 1 60
2019-04-15 13:00:00 18.5 27 Sudoeste 39 Sudoeste 0 923.5 0.5 61
2019-04-15 12:00:00 16.5 28 Oeste 43 Sudoeste 0 923.4 0.4 72
2019-04-15 11:00:00 16.2 24 Sudoeste 41 Sudoeste 0 922.9 0 71
2019-04-15 10:00:00 14.4 15 Sur 24 Sur 0 923 0 78
2019-04-15 09:00:00 13.2 7 Sur 14 Sur 0 923 -0.6 83
2019-04-15 08:00:00 12.6 8 Sudeste 14 Sudeste 0 922.9 -1.3 84
2019-04-15 07:00:00 12.3 4 Sudeste 13 Sur 0 923 -2 84
2019-04-15 06:00:00 12.7 8 Sudeste 17 Sudeste 0 923.6 -2.3 82
2019-04-15 05:00:00 13 6 Sur 15 Sudeste 0 924.2 -2.2 81
2019-04-15 04:00:00 12.4 5 Sudeste 9 Sudeste 0 925 -1.5 84
2019-04-15 03:00:00 12.2 5 Sur 8 Sur 0 925.9 -0.9 86
2019-04-15 02:00:00 11.6 3 Sur 6 Sur 0 926.4 -0.5 87
2019-04-15 01:00:00 12.2 4 Sur 9 Sur 0 926.5 -0.4 86
2019-04-15 00:00:00 13.4 6 Sur 13 Sur 0 926.8 0.1 80
2019-04-14 23:00:00 15 7 Sudeste 12 Sudeste 0 926.9 -0.1 75
2019-04-14 22:00:00 15 4 Este 6 Este 0 926.9 -0.5 74
2019-04-14 21:00:00 16.7 3 Norte 5 Norte 0 926.7 -0.8 67
2019-04-14 20:00:00 18.3 5 Noroeste 9 Oeste 0 927 -1.1 61
2019-04-14 19:00:00 18.2 8 Oeste 17 Sudoeste 0 927.4 -1.3 66
2019-04-14 18:00:00 19.6 8 Sudoeste 16 Oeste 0 927.5 -1.7 59
2019-04-14 17:00:00 18.9 10 Oeste 15 Oeste 0 928.1 -1.3 62
2019-04-14 16:00:00 19.8 8 Sudoeste 18 Sudoeste 0 928.7 -1.2 59
2019-04-14 15:00:00 18.6 9 Oeste 15 Oeste 0 929.2 -0.8 73
2019-04-14 14:00:00 16.8 9 Oeste 16 Sudoeste 0.4 929.4 -0.7 83
2019-04-14 13:00:00 14.4 9 Sudoeste 17 Sur 0.6 929.9 0.2 89
2019-04-14 12:00:00 14.1 7 Sudoeste 12 Sur 0.2 930 0.5 88
2019-04-14 11:00:00 13.6 7 Sudoeste 14 Sudoeste 0 930.1 0.9 87
2019-04-14 10:00:00 12.6 8 Sudoeste 12 Sudoeste 0 929.7 0.4 90
2019-04-14 09:00:00 11.6 6 Sur 13 Sur 0 929.5 0.1 92
2019-04-14 08:00:00 10.9 5 Sur 10 Sur 0 929.2 -0.5 93
2019-04-14 07:00:00 10.7 4 Sudoeste 10 Sudoeste 0 929.3 -0.7 93
2019-04-14 06:00:00 10.7 8 Sudoeste 14 Sur 0 929.4 -0.8 93
2019-04-14 05:00:00 10.4 5 Sur 12 Sudoeste 0 929.7 -1 92
2019-04-14 04:00:00 10.7 4 Sudoeste 10 Oeste 0 930 -0.7 90
2019-04-14 03:00:00 11.2 9 Sudoeste 15 Oeste 0 930.2 -0.5 89
2019-04-14 02:00:00 11.6 7 Sudoeste 16 Oeste 0 930.7 0 86
2019-04-14 01:00:00 12 12 Oeste 23 Oeste 0 930.7 0.4 84
2019-04-14 00:00:00 13 19 Oeste 28 Oeste 0 930.7 0.9 80
2019-04-13 23:00:00 13.1 13 Oeste 23 Oeste 0 930.7 1.1 75
2019-04-13 22:00:00 13.8 15 Oeste 23 Oeste 0 930.3 1.1 67
2019-04-13 21:00:00 14.8 14 Oeste 29 Oeste 0 929.8 0.7 60
2019-04-13 20:00:00 16.4 15 Oeste 28 Oeste 0 929.6 0.5 49
2019-04-13 19:00:00 18.4 23 Oeste 31 Oeste 0 929.2 -0.4 42
2019-04-13 18:00:00 20.4 18 Oeste 26 Oeste 0 929.1 -0.9 35
2019-04-13 17:00:00 21.5 12 Sudoeste 25 Oeste 0 929.1 -0.9 33
2019-04-13 16:00:00 21.3 12 Sudoeste 22 Oeste 0 929.6 -0.9 33
2019-04-13 15:00:00 20.4 10 Sudoeste 20 Sudoeste 0 930 -0.6 26
2019-04-13 14:00:00 19 5 Noroeste 20 Sudoeste 0 930 -0.6 43
2019-04-13 13:00:00 17.5 8 Sur 18 Sudeste 0 930.5 -0.1 36
2019-04-13 12:00:00 16.1 6 Sudeste 12 Sur 0 930.6 0 42
2019-04-13 11:00:00 14 5 Sur 11 Sudoeste 0 930.6 0.2 58
2019-04-13 10:00:00 11.6 5 Sur 12 Sur 0 930.6 0.7 69
2019-04-13 09:00:00 7.9 3 Sudeste 10 Sur 0 930.6 0.9 81
2019-04-13 08:00:00 6.2 4 Sur 9 Sur 0 930.4 0.7 85
2019-04-13 07:00:00 6.3 3 Sur 6 Sur 0 929.9 0.1 82
2019-04-13 06:00:00 6.2 3 Sur 5 Sur 0 929.7 -0.4 81
2019-04-13 05:00:00 6 3 Sur 5 Sudoeste 0 929.7 -0.6 79
2019-04-13 04:00:00 5.5 3 Sur 4 Sur 0 929.8 -0.4 78
2019-04-13 03:00:00 5.6 3 Sur 6 Sur 0 930.1 0.1 75
2019-04-13 02:00:00 5.8 8 Sur 15 Sudoeste 0 930.3 0.2 74
2019-04-13 01:00:00 6.5 2 Sudeste 3 Sudeste 0 930.2 0.5 69
2019-04-13 00:00:00 7.4 2 Este 4 Este 0 930 0.8 65
2019-04-12 23:00:00 8.7 2 Sudeste 5 Este 0 930.1 0.9 64
2019-04-12 22:00:00 10.9 0 Calma 6 Noroeste 0 929.7 0.4 55
2019-04-12 21:00:00 13.5 5 Noroeste 10 Oeste 0 929.2 -0.1 47
2019-04-12 20:00:00 16.8 4 Noroeste 12 Noroeste 0 929.2 -0.4 36
2019-04-12 19:00:00 17.2 3 Norte 11 Noroeste 0 929.3 -0.9 37
2019-04-12 18:00:00 17.1 5 Norte 18 Norte 0 929.3 -1.3 33
2019-04-12 17:00:00 17.4 6 Noroeste 17 Norte 0 929.6 -1.3 35
2019-04-12 16:00:00 16.2 6 Nordeste 19 Nordeste 0 930.2 -1 37
2019-04-12 15:00:00 15.4 6 Norte 18 Norte 0 930.6 -0.8 41
2019-04-12 14:00:00 15.5 5 Norte 16 Norte 0 930.9 -0.4 47
2019-04-12 13:00:00 14.7 5 Nordeste 13 Nordeste 0 931.2 0.1 52
2019-04-12 12:00:00 13.1 4 Norte 12 Este 0 931.4 0.3 54
2019-04-12 11:00:00 11 5 Sudeste 15 Este 0 931.3 0.7 60
2019-04-12 10:00:00 8.5 6 Este 9 Este 0 931.1 0.8 71
2019-04-12 09:00:00 4.6 6 Sudeste 11 Sudeste 0 931.1 0.6 82
2019-04-12 08:00:00 2.3 5 Este 12 Este 0 930.6 0.3 87
2019-04-12 07:00:00 2.7 8 Este 15 Este 0 930.3 -0.2 82
2019-04-12 06:00:00 3.7 10 Nordeste 15 Este 0 930.5 -0.2 81
2019-04-12 05:00:00 4.5 9 Este 15 Este 0 930.3 -0.3 78
2019-04-12 04:00:00 4 9 Este 13 Este 0 930.5 -0.2 79
2019-04-12 03:00:00 3.8 7 Nordeste 22 Norte 0 930.7 -0.1 77
2019-04-12 02:00:00 4.3 5 Oeste 13 Oeste 0 930.6 -0.3 75
2019-04-12 01:00:00 5.6 0 Calma 3 Sudoeste 0 930.7 0.2 68
2019-04-12 00:00:00 7 0 Calma 7 Este 0 930.8 0.7 66
2019-04-11 23:00:00 6.7 4 Este 5 Este 0 930.9 0.9 65
2019-04-11 22:00:00 8.3 4 Norte 6 Noroeste 0 930.5 0.4 60
2019-04-11 21:00:00 10.8 6 Noroeste 9 Noroeste 0 930.1 0 49
2019-04-11 20:00:00 13.5 7 Norte 11 Norte 0 930 -0.3 39
2019-04-11 19:00:00 14.3 5 Noroeste 14 Norte 0 930.1 -0.5 37
2019-04-11 18:00:00 15.5 8 Noroeste 14 Oeste 0 930.1 -0.8 40
2019-04-11 17:00:00 13.5 9 Norte 19 Nordeste 0 930.3 -0.8 40
2019-04-11 16:00:00 14.4 9 Este 18 Nordeste 0 930.6 -1 44
2019-04-11 15:00:00 14.4 7 Nordeste 18 Nordeste 0 930.9 -0.8 50
2019-04-11 14:00:00 12.1 7 Norte 17 Norte 0 931.1 -0.4 50
2019-04-11 13:00:00 10.8 4 Norte 15 Norte 0 931.6 0.4 55
2019-04-11 12:00:00 11.8 6 Este -- -- -- 931.7 0.7 56
2019-04-11 11:00:00 10.6 4 Este 13 Nordeste 0 931.5 0.8 63
2019-04-11 10:00:00 7.7 8 Este 13 Este 0 931.2 0.8 81
2019-04-11 09:00:00 4.1 7 Nordeste 11 Nordeste 0 931 0.6 93
2019-04-11 08:00:00 1.4 8 Nordeste 12 Este 0 930.7 0.3 94
2019-04-11 07:00:00 1.4 5 Este 9 Este 0 930.4 0.4 93
2019-04-11 06:00:00 1.6 7 Nordeste 10 Nordeste 0 930.4 0.4 92
2019-04-11 05:00:00 2.1 4 Nordeste 9 Norte 0 930.4 0.3 91
2019-04-11 04:00:00 3 2 Este 19 Nordeste 0 930 -0.1 88
2019-04-11 03:00:00 4.4 13 Nordeste 21 Nordeste 0 930 0.2 85
2019-04-11 02:00:00 4.6 10 Nordeste 17 Norte 0 930.1 0.3 86
2019-04-11 01:00:00 5.4 8 Oeste 11 Oeste 0 930.1 0.7 84
2019-04-11 00:00:00 7.3 5 Sur 13 Este 0.2 929.8 1.4 85
2019-04-10 23:00:00 7.4 6 Sudoeste 22 Nordeste 0.6 929.8 2 82
2019-04-10 22:00:00 7.9 4 Sur 11 Sur 0 929.4 2.5 74
2019-04-10 21:00:00 8.3 8 Este 28 Este 0 928.4 2 69
2019-04-10 20:00:00 12.2 14 Norte 37 Noroeste 0 927.8 1.5 52
2019-04-10 19:00:00 13.6 26 Noroeste 41 Noroeste 0 926.9 0.1 49
2019-04-10 18:00:00 13.4 26 Noroeste 44 Noroeste 0 926.4 -0.8 51
2019-04-10 17:00:00 14.8 29 Oeste 46 Oeste 0 926.3 -0.8 45
2019-04-10 16:00:00 14.2 30 Oeste 44 Oeste 0 926.8 -0.8 50
2019-04-10 15:00:00 14.7 29 Oeste 46 Oeste 0 927.2 -0.2 53
2019-04-10 14:00:00 13.6 27 Oeste 44 Noroeste 0 927.1 -0.3 58
2019-04-10 13:00:00 11 23 Noroeste 43 Oeste 0 927.6 0.5 62
2019-04-10 12:00:00 9.7 24 Oeste 40 Oeste 0 927.4 0.7 70
2019-04-10 11:00:00 10.1 22 Noroeste 32 Oeste 0 927.4 1.1 77
2019-04-10 10:00:00 6.6 21 Oeste 29 Oeste 0 927.1 0.9 93
2019-04-10 09:00:00 5.4 17 Oeste 25 Oeste 0.2 926.7 0.7 94
2019-04-10 08:00:00 4.9 18 Oeste 24 Oeste 0 926.3 0.5 94
2019-04-10 07:00:00 4.8 10 Sudoeste 16 Sudoeste 0 926.2 0.3 93
2019-04-10 06:00:00 4.7 9 Sudoeste 19 Sudoeste 0.4 926 -0.1 92
2019-04-10 05:00:00 4.7 15 Sudoeste 25 Sudoeste 0 925.8 -0.6 91
2019-04-10 04:00:00 4.9 17 Oeste 26 Oeste 0 925.9 -0.3 92
2019-04-10 03:00:00 5 16 Sudoeste 21 Sudoeste 0 926.1 0 94
2019-04-10 02:00:00 4.4 10 Sudoeste 23 Oeste 0 926.4 0.1 94
2019-04-10 01:00:00 4.8 13 Oeste 32 Oeste 0 926.2 0.5 93
2019-04-10 00:00:00 5 21 Oeste 33 Oeste 0 926.1 1 91
2019-04-09 23:00:00 5.9 23 Oeste 40 Oeste 0.2 926.3 1.9 89
2019-04-09 22:00:00 6.7 22 Oeste 44 Oeste 0.2 925.7 1.6 86
2019-04-09 21:00:00 7.4 26 Oeste 44 Oeste 0 925.1 1.1 76
2019-04-09 20:00:00 8.6 24 Oeste 39 Oeste 0 924.4 0 70
2019-04-09 19:00:00 10 30 Oeste 51 Oeste 0 924.1 -0.4 61
2019-04-09 18:00:00 11.7 28 Oeste 43 Oeste 0 924 -0.4 56
2019-04-09 17:00:00 12.5 28 Oeste 46 Sudoeste 0 924.4 -0.1 62
2019-04-09 16:00:00 11.7 26 Oeste 51 Oeste 0 924.5 -0.1 71
2019-04-09 15:00:00 13.1 26 Oeste 47 Oeste 0 924.4 -0.1 56
2019-04-09 14:00:00 13.3 25 Oeste 44 Oeste 0 924.5 -0.1 59
2019-04-09 13:00:00 10.7 25 Oeste 38 Oeste 0 924.6 0.7 75
2019-04-09 12:00:00 8.6 23 Oeste 39 Sudoeste 0.2 924.5 0.8 91
2019-04-09 11:00:00 4.4 23 Sudoeste 47 Sudoeste 1.8 924.6 1.6 93
2019-04-09 10:00:00 4.1 27 Sudoeste 43 Sudoeste 3.4 923.9 0.8 92
2019-04-09 09:00:00 5 22 Sudoeste 37 Sudoeste 0.8 923.7 0.4 92
2019-04-09 08:00:00 5 23 Sudoeste 36 Sudoeste 0.2 923 -0.5 92
2019-04-09 07:00:00 4.7 19 Sudoeste 37 Sudoeste 0 923.1 -0.7 93
2019-04-09 06:00:00 4.8 20 Sudoeste 34 Sudoeste 0.2 923.3 -0.7 92
2019-04-09 05:00:00 4.8 15 Sudoeste 33 Sudoeste 0.2 923.5 -0.7 92
2019-04-09 04:00:00 4.9 19 Sudoeste 32 Sudoeste 0 923.8 -0.6 89
2019-04-09 03:00:00 4.5 7 Sur 16 Sur 0 924 -0.7 86
2019-04-09 02:00:00 4.2 9 Sur 24 Sudoeste 0 924.2 -0.6 86
2019-04-09 01:00:00 5.2 13 Sudoeste 31 Sudoeste 0 924.4 -0.1 83
2019-04-09 00:00:00 6 20 Sudoeste 32 Sudoeste 0 924.7 0.8 83
2019-04-08 23:00:00 6.1 19 Sudoeste 41 Sudoeste 0 924.8 1 82
2019-04-08 22:00:00 6.5 19 Sudoeste 31 Oeste 0 924.5 0.6 79
2019-04-08 21:00:00 6.8 18 Sudoeste 38 Sudoeste 0 923.9 0.1 76
2019-04-08 20:00:00 8.6 24 Sudoeste 43 Oeste 0 923.8 -0.8 70
2019-04-08 19:00:00 9.7 22 Sudoeste 39 Sudoeste 0 923.9 -0.3 68
2019-04-08 18:00:00 11.3 20 Sudoeste 28 Sudoeste 0 923.8 -0.7 61
2019-04-08 17:00:00 9.5 24 Sudoeste 48 Sudoeste 0 924.6 -0.3 70
2019-04-08 16:00:00 13 19 Sudoeste 42 Sudoeste 0 924.2 -0.5 53
2019-04-08 15:00:00 13.7 18 Sudoeste 32 Sudoeste 0 924.5 -0.5 52
2019-04-08 14:00:00 11.9 20 Oeste 44 Oeste 0 924.9 0.3 65
2019-04-08 13:00:00 10.6 22 Sudoeste 33 Oeste 0 924.7 0.3 67
2019-04-08 12:00:00 11.4 20 Sudoeste 31 Sudoeste 0 925 0.9 67
2019-04-08 11:00:00 8 16 Oeste 28 Oeste 0 924.6 1.1 87
2019-04-08 10:00:00 7.5 17 Oeste 26 Oeste 0 924.4 1.3 93
2019-04-08 09:00:00 6.7 13 Sudoeste 19 Sudoeste 0 924.1 1.5 94
2019-04-08 08:00:00 6 11 Sudoeste 19 Oeste 0.2 923.5 1.2 94
2019-04-08 07:00:00 6.6 16 Sudoeste 37 Oeste 0 923.1 1 94
2019-04-08 06:00:00 7.2 18 Sudoeste 28 Sudoeste 0 922.6 0.6 94
2019-04-08 05:00:00 7.6 18 Sudoeste 34 Sudoeste 0 922.3 0.4 94
2019-04-08 04:00:00 8.1 25 Sudoeste 36 Sudoeste 1.8 922.1 -0.3 94
2019-04-08 03:00:00 8 15 Sudoeste 27 Sur 0.6 922 -0.4 93
2019-04-08 02:00:00 8 14 Sudoeste 34 Sudoeste 0.4 921.9 -0.9 92
2019-04-08 01:00:00 7.7 14 Sudoeste 25 Sudoeste 0 922.4 -0.1 93
2019-04-08 00:00:00 8 13 Sudoeste 24 Sudoeste 0 922.4 0.2 94
2019-04-07 23:00:00 8.1 19 Sudoeste 33 Sudoeste 0 922.8 0.8 94
2019-04-07 22:00:00 8.4 21 Sudoeste 33 Sudoeste 0.8 922.5 0.7 94
2019-04-07 21:00:00 8.3 24 Sudoeste 37 Sudoeste 0.2 922.2 0 94
2019-04-07 20:00:00 8 13 Sudoeste 25 Sur 1 922 -0.4 93
2019-04-07 19:00:00 8 12 Sur 21 Sur 1.8 921.8 -0.8 92
2019-04-07 18:00:00 7.7 9 Sur 22 Sudoeste 1.4 922.2 -0.5 90
2019-04-07 17:00:00 8 8 Sur 24 Sudoeste 0.8 922.4 -0.5 84
2019-04-07 16:00:00 8.1 16 Sudoeste 35 Sudoeste 0.2 922.6 -0.2 82
2019-04-07 15:00:00 8.7 17 Sudoeste 29 Sudoeste 0.4 922.7 -0.1 75
2019-04-07 14:00:00 8.7 12 Sudoeste 25 Sudoeste 0 922.9 0.4 73
2019-04-07 13:00:00 8.2 14 Sudoeste 22 Sudoeste 0 922.8 0.7 76
2019-04-07 12:00:00 6.6 13 Sudoeste 22 Sudoeste 0 922.8 1.2 82
2019-04-07 11:00:00 6 15 Sudoeste 24 Sudoeste 0 922.5 1.5 87
2019-04-07 10:00:00 5.1 15 Sudoeste 22 Sudoeste 0 922.1 1.7 93
2019-04-07 09:00:00 3.5 8 Sudoeste 13 Sudoeste 0 921.6 1.8 95
2019-04-07 08:00:00 2.3 6 Sudoeste 10 Sur 0 921 1.8 95
2019-04-07 07:00:00 1.7 5 Sudoeste 12 Sudoeste 0 920.4 1.4 95
2019-04-07 06:00:00 1.5 7 Sudoeste 15 Sudoeste 0 919.8 1 95
2019-04-07 05:00:00 1.4 12 Sudoeste 21 Oeste 0 919.2 0.7 95
2019-04-07 04:00:00 1.3 11 Oeste 26 Oeste 0 919 0.7 94
2019-04-07 03:00:00 2.2 22 Oeste 30 Sudoeste 0 918.8 0.7 94
2019-04-07 02:00:00 2.1 17 Sudoeste 26 Sudoeste 0 918.5 0.7 93
2019-04-07 01:00:00 3.3 18 Sudoeste 33 Oeste 0 918.3 0.9 93
2019-04-07 00:00:00 3.8 22 Sudoeste 33 Oeste 0.4 918.1 1 92
2019-04-06 23:00:00 3.8 22 Oeste 35 Sudoeste 0.2 917.8 1.2 90
2019-04-06 22:00:00 3.9 12 Sudoeste 19 Sudoeste 0 917.4 1.8 90
2019-04-06 21:00:00 3.9 8 Oeste 33 Sudoeste 0.4 917.1 1.9 88
2019-04-06 20:00:00 4.5 30 Sudoeste 60 Oeste 0.6 916.6 2.1 87
2019-04-06 19:00:00 7.2 27 Oeste 51 Oeste 0 915.6 0.9 71
2019-04-06 18:00:00 8.1 24 Sudoeste 50 Oeste 0 915.2 0.7 77
2019-04-06 17:00:00 10.5 33 Oeste 50 Oeste 0 914.5 0.3 61
2019-04-06 16:00:00 6.6 29 Oeste 50 Oeste 0.2 914.7 0.5 76
2019-04-06 15:00:00 8.6 30 Oeste 45 Oeste 0.2 914.5 0.6 81
2019-04-06 14:00:00 6.6 28 Sudoeste 58 Oeste 0.8 914.2 0.5 88
2019-04-06 13:00:00 4.9 36 Sudoeste 57 Sudoeste 0.4 914.2 0.6 88
2019-04-06 12:00:00 3.8 29 Sudoeste 46 Sudoeste 0.4 913.9 0.5 93
2019-04-06 11:00:00 2.6 23 Sudoeste 41 Sudoeste 0.8 913.7 0.9 94
2019-04-06 10:00:00 2.3 27 Sudoeste 49 Sudoeste 0.2 913.6 0.6 92
2019-04-06 09:00:00 2.3 26 Sudoeste 43 Sudoeste 0.2 913.4 0.4 94
2019-04-06 08:00:00 2.1 20 Sudoeste 44 Sudoeste 0.6 912.8 -0.5 94
2019-04-06 07:00:00 2.8 22 Sudoeste 40 Sudoeste 0.4 913 -0.4 93
2019-04-06 06:00:00 3 21 Sudoeste 33 Sudoeste 0.2 913 -0.9 93
2019-04-06 05:00:00 2.9 19 Sudoeste 33 Sudoeste 0.4 913.3 -1 92
2019-04-06 04:00:00 3.2 19 Sudoeste 29 Sudoeste 0 913.4 -0.8 93
2019-04-06 03:00:00 2.6 14 Sudoeste 23 Sudoeste 0 913.9 -0.1 93
2019-04-06 02:00:00 2.8 19 Sudoeste 31 Sudoeste 0 914.3 0.6 93
2019-04-06 01:00:00 3 15 Sudoeste 28 Sudoeste 0 914.2 1.2 92
2019-04-06 00:00:00 2.9 17 Sudoeste 26 Sudoeste 0 914 1.6 93
2019-04-05 23:00:00 2.5 15 Sudoeste 26 Oeste 0 913.7 1.9 92
2019-04-05 22:00:00 2.7 17 Oeste 33 Sudoeste 0 913 1.7 91
2019-04-05 21:00:00 2.8 21 Oeste 37 Oeste 0.4 912.4 1.3 91
2019-04-05 20:00:00 3.6 32 Oeste 43 Oeste 2.2 911.8 1.5 88
2019-04-05 19:00:00 5.1 28 Sudoeste 39 Sudoeste 0.2 911.3 0.9 84
2019-04-05 18:00:00 4.7 14 Sudoeste 61 Sudoeste 0.2 911.1 0.5 83
2019-04-05 17:00:00 11.2 24 Sudoeste 40 Oeste 0 910.3 -0.7 50
2019-04-05 16:00:00 9.6 16 Oeste 32 Oeste 0.2 910.4 -0.8 64
2019-04-05 15:00:00 9.4 18 Sudoeste 35 Oeste 0 910.6 -0.4 55
2019-04-05 14:00:00 7.9 21 Oeste 31 Oeste 0 911 0 64
2019-04-05 13:00:00 6.3 22 Oeste 34 Oeste 0 911.2 0.8 67
2019-04-05 12:00:00 5.8 16 Oeste 26 Oeste 0 911 0.9 79
2019-04-05 11:00:00 4.2 18 Sudoeste 26 Sudoeste 0 911 1.2 86
2019-04-05 10:00:00 3.1 16 Sudoeste 25 Sudoeste 0 910.4 0.9 91
2019-04-05 09:00:00 2.6 14 Sudoeste 21 Sudoeste 0 910.1 1 93
2019-04-05 08:00:00 1.8 9 Sudoeste 18 Sudoeste 0 909.8 0.4 93
2019-04-05 07:00:00 2.2 12 Sudoeste 19 Sudoeste 0 909.5 0.1 93
2019-04-05 06:00:00 2.7 13 Sudoeste 35 Oeste 0 909.1 -0.5 93
2019-04-05 05:00:00 3.2 19 Sudoeste 45 Oeste 1.4 909.4 -0.4 92
2019-04-05 04:00:00 4.2 17 Sudoeste 42 Sudoeste 0.2 909.4 -0.8 93
2019-04-05 03:00:00 4.1 22 Sudoeste 38 Sudoeste 0.2 909.6 -1.2 91
2019-04-05 02:00:00 4.2 22 Sudoeste 38 Sur 0 909.8 -1.9 89
2019-04-05 01:00:00 4.3 16 Sur 30 Sudoeste 0.2 910.2 -1.9 89
2019-04-05 00:00:00 4 13 Sur 27 Sur 0.2 910.8 -1.6 89
2019-04-04 23:00:00 4 14 Sur 29 Sudoeste 0 911.7 -1.3 89
2019-04-04 22:00:00 4.2 14 Sudoeste 31 Sudoeste 0.4 912.1 -1.3 88
2019-04-04 21:00:00 4.6 12 Sudoeste 20 Sudoeste 0.8 912.4 -1.2 87
2019-04-04 20:00:00 5.4 14 Oeste 30 Sudoeste 0.2 913 -0.7 82
2019-04-04 19:00:00 7.6 15 Sudoeste 28 Oeste 0 913.4 -1 64
2019-04-04 18:00:00 9.2 23 Oeste 40 Sudoeste 0 913.6 -1.7 54
2019-04-04 17:00:00 11.2 28 Sudoeste 45 Sudoeste 0 913.7 -2.7 39
2019-04-04 16:00:00 12.5 23 Sudoeste 39 Oeste 0 914.4 -2.9 37
2019-04-04 15:00:00 11.4 16 Sudoeste 28 Sudoeste 0 915.3 -2.4 37
2019-04-04 14:00:00 11.2 17 Oeste 26 Sudoeste 0 916.4 -1.4 43
2019-04-04 13:00:00 9.5 10 Oeste 19 Sudoeste 0 917.3 -0.7 48
2019-04-04 12:00:00 7.6 6 Oeste 19 Oeste 0 917.7 -0.2 55
2019-04-04 11:00:00 6.5 8 Sudoeste 15 Sudoeste 0 917.8 0.2 60
2019-04-04 10:00:00 2.6 8 Sur 14 Sudoeste 0 918 0.6 73
2019-04-04 09:00:00 -1.1 5 Sur 8 Sur 0 917.9 0.6 85
2019-04-04 08:00:00 -3.2 4 Sur 9 Sur 0 917.6 -0.2 88
2019-04-04 07:00:00 -3.3 8 Oeste 10 Noroeste 0 917.4 -0.5 85
2019-04-04 06:00:00 -2.4 2 Sudeste 9 Noroeste 0 917.3 -1.2 85
2019-04-04 05:00:00 -1.9 9 Noroeste 16 Noroeste 0 917.8 -1.5 82
2019-04-04 04:00:00 -1 14 Noroeste 19 Noroeste 0 917.9 -1.8 77
2019-04-04 03:00:00 -0.2 15 Noroeste 22 Noroeste 0 918.5 -1.3 77
2019-04-04 02:00:00 0.9 13 Noroeste 19 Noroeste 0 919.3 -0.5 71
2019-04-04 01:00:00 1.4 15 Noroeste 26 Noroeste 0 919.7 0.2 69
2019-04-04 00:00:00 2.2 4 Oeste 27 Noroeste 0 919.8 0.9 62
2019-04-03 23:00:00 2.9 9 Noroeste 24 Noroeste 0 919.8 1.2 60
2019-04-03 22:00:00 3.6 6 Noroeste 21 Norte 0 919.5 0.7 59
2019-04-03 21:00:00 5.8 13 Norte 32 Noroeste 0 918.9 -0.1 53
2019-04-03 20:00:00 8.1 22 Noroeste 38 Noroeste 0 918.6 -0.4 45
2019-04-03 19:00:00 9.9 15 Noroeste 37 Noroeste 0 918.8 -1 42
2019-04-03 18:00:00 11.2 19 Noroeste 41 Noroeste 0 919 -1.2 43
2019-04-03 17:00:00 11.3 28 Noroeste 44 Noroeste 0 919 -1.8 40
2019-04-03 16:00:00 12.3 27 Noroeste 44 Noroeste 0 919.8 -1.5 35
2019-04-03 15:00:00 12 26 Noroeste 41 Noroeste 0 920.2 -1.7 42
2019-04-03 14:00:00 11.2 24 Noroeste 41 Noroeste 0 920.8 -1.1 42
2019-04-03 13:00:00 10.1 21 Noroeste 39 Noroeste 0 921.3 -0.7 48
2019-04-03 12:00:00 8.7 23 Noroeste 43 Noroeste 0 921.9 -0.3 54
2019-04-03 11:00:00 7.1 20 Noroeste 33 Noroeste 0 921.9 -0.3 59
2019-04-03 10:00:00 6.1 20 Noroeste 32 Oeste 0 922 -0.4 68
2019-04-03 09:00:00 4.1 16 Oeste 25 Oeste 0 922.2 -0.6 81
2019-04-03 08:00:00 3.4 13 Oeste 17 Oeste 0 922.2 -0.8 88
2019-04-03 07:00:00 2.9 13 Oeste 21 Noroeste 0 922.4 -1.4 91
2019-04-03 06:00:00 1.4 9 Oeste 14 Oeste 0 922.8 -1.6 87
2019-04-03 05:00:00 2.7 9 Oeste 12 Oeste 0 923 -1.7 86
2019-04-03 04:00:00 4.1 4 Oeste 14 Oeste 0 923.8 -1.3 85
2019-04-03 03:00:00 3.4 12 Oeste 14 Oeste 0 924.4 -1.1 82
2019-04-03 02:00:00 4.8 5 Sudoeste 10 Sudoeste 0 924.7 -0.7 79
2019-04-03 01:00:00 5.7 7 Oeste 14 Oeste 0 925.1 -0.3 73
2019-04-03 00:00:00 6.9 12 Noroeste 18 Oeste 0 925.5 1 69
2019-04-02 23:00:00 7.6 14 Oeste 18 Oeste 0 925.4 0.7 65
2019-04-02 22:00:00 9.3 9 Oeste 16 Oeste 0 925.4 0.6 57
2019-04-02 21:00:00 11.1 10 Oeste 22 Oeste 0 924.5 -0.5 48
2019-04-02 20:00:00 14.7 12 Noroeste 27 Noroeste 0 924.7 -0.8 35
2019-04-02 19:00:00 17.5 18 Oeste 32 Noroeste 0 924.8 -1.1 25
2019-04-02 18:00:00 18.5 18 Oeste 35 Noroeste 0 925 -1.3 27
2019-04-02 17:00:00 19.3 18 Oeste 36 Oeste 0 925.5 -1.4 28
2019-04-02 16:00:00 19.5 18 Oeste 32 Oeste 0 925.9 -1.5 31
2019-04-02 15:00:00 19 17 Oeste 26 Sudoeste 0 926.3 -1.4 34
2019-04-02 14:00:00 18.4 15 Oeste 26 Oeste 0 926.9 -0.7 39
2019-04-02 13:00:00 17.1 17 Oeste 26 Oeste 0 927.4 0.1 47
2019-04-02 12:00:00 15.6 14 Oeste 24 Oeste 0 927.7 0.7 52
2019-04-02 11:00:00 12.6 13 Oeste 21 Oeste 0 927.6 0.8 65
2019-04-02 10:00:00 9.6 11 Oeste 14 Sudoeste 0 927.3 0.9 80
2019-04-02 09:00:00 7.5 6 Sur 9 Sur 0 927 0.5 86
2019-04-02 08:00:00 7.2 7 Sudoeste 9 Oeste 0 926.8 0.3 87
2019-04-02 07:00:00 7.2 7 Oeste 10 Sudoeste 0 926.4 -0.4 87
2019-04-02 06:00:00 7.3 6 Sudoeste 12 Sudoeste 0 926.5 -0.5 86
2019-04-02 05:00:00 7.5 6 Sudoeste 14 Oeste 0 926.5 -0.6 86
2019-04-02 04:00:00 7.3 11 Oeste 17 Oeste 0 926.8 -0.2 89
2019-04-02 03:00:00 5.5 9 Oeste 11 Sudoeste 0 927 0.1 88
2019-04-02 02:00:00 5.6 7 Sudoeste 10 Sur 0 927.1 0.3 83
2019-04-02 01:00:00 7 4 Sur 9 Sudoeste 0 927 0.3 80
2019-04-02 00:00:00 7.7 6 Sudoeste 12 Sudoeste 0 926.9 0.9 78
2019-04-01 23:00:00 7.6 6 Oeste 11 Oeste 0 926.8 1.4 78
2019-04-01 22:00:00 8.3 4 Norte 19 Noroeste 0 926.7 2.3 72
2019-04-01 21:00:00 9.5 15 Noroeste 22 Noroeste 0 926 2 70
2019-04-01 20:00:00 11.9 10 Oeste 26 Sudoeste 0 925.4 1.5 62
2019-04-01 19:00:00 14.3 21 Sudoeste 31 Sudoeste 0 924.4 0.2 57
2019-04-01 18:00:00 16.8 3 Sudoeste 14 Este 0 924 -0.7 33
2019-04-01 17:00:00 18.3 4 Este 14 Nordeste 0 923.9 -1.3 36
2019-04-01 16:00:00 18.3 5 Oeste 16 Este 0 924.2 -1.4 35
2019-04-01 15:00:00 16.1 6 Nordeste 14 Sur 0 924.7 -1.1 44
2019-04-01 14:00:00 16.6 5 Norte 14 Noroeste 0 925.2 -0.3 47
2019-04-01 13:00:00 15.2 5 Oeste 16 Nordeste 0 925.6 0.4 50
2019-04-01 12:00:00 14.6 8 Nordeste 18 Nordeste 0 925.8 1.1 55
2019-04-01 11:00:00 12.4 10 Nordeste 18 Este 0 925.5 1.3 67
2019-04-01 10:00:00 9.1 10 Este 17 Este 0 925.2 1.4 76
2019-04-01 09:00:00 5.8 10 Este 14 Este 0 924.7 0.9 86
2019-04-01 08:00:00 4.1 6 Este 11 Nordeste 0 924.2 0.4 86
2019-04-01 07:00:00 4.6 6 Este 11 Nordeste 0 923.8 0 84
2019-04-01 06:00:00 5.5 8 Nordeste 11 Nordeste 0 923.8 0.2 81
2019-04-01 05:00:00 6.1 4 Nordeste 6 Nordeste 0 923.8 0.4 82
2019-04-01 04:00:00 5.6 6 Nordeste 9 Nordeste 0 923.8 0.4 79
2019-04-01 03:00:00 6.8 3 Sur 7 Este 0 923.6 0.3 72
2019-04-01 02:00:00 7.4 3 Sur 12 Sudeste 0 923.4 0.3 67
2019-04-01 01:00:00 8.1 6 Sudeste 14 Este 0 923.4 0.5 64
2019-04-01 00:00:00 8.3 8 Nordeste 13 Nordeste 0 923.3 1.2 63
2019-03-31 23:00:00 10 6 Nordeste 8 Nordeste 0 923.1 1.3 54
2019-03-31 22:00:00 11.2 11 Noroeste 35 Noroeste 0 922.9 1.1 51
2019-03-31 21:00:00 13.2 10 Oeste 15 Oeste 0 922.1 0.2 46
2019-03-31 20:00:00 17.5 8 Sudoeste 15 Sur 0 921.8 -0.6 32
2019-03-31 19:00:00 20 9 Oeste 14 Sudoeste 0 921.8 -0.6 27
2019-03-31 18:00:00 19.1 6 Sudeste 23 Nordeste 0 921.9 -1.3 22
2019-03-31 17:00:00 17.7 16 Nordeste 35 Nordeste 0 922.4 -1.6 28
2019-03-31 16:00:00 20.1 19 Nordeste 35 Nordeste 0 922.4 -2.2 32
2019-03-31 15:00:00 19.5 9 Este 19 Este 0 923.2 -1.7 33
2019-03-31 14:00:00 18.2 9 Nordeste 21 Este 0 924 -1 38
2019-03-31 13:00:00 16.2 12 Nordeste 21 Nordeste 0 924.6 -0.1 44
2019-03-31 12:00:00 14.4 12 Nordeste 22 Nordeste 0 924.9 0.4 46
2019-03-31 11:00:00 11.2 14 Nordeste 22 Este 0 925 0.8 52
2019-03-31 10:00:00 7.9 15 Nordeste 22 Este 0 924.7 0.5 64
2019-03-31 09:00:00 5.3 11 Nordeste 17 Nordeste 0 924.5 0.2 69
2019-03-31 08:00:00 3.8 6 Nordeste 13 Nordeste 0 924.2 -0.8 70
2019-03-31 07:00:00 5 5 Sudeste 24 Nordeste 0 924.2 -1.1 67
2019-03-31 06:00:00 5.8 3 Sudeste 12 Este 0 924.3 -1.6 61
2019-03-31 05:00:00 6.2 12 Este 18 Nordeste 0 925 -1.2 59
2019-03-31 03:00:00 6.8 9 Nordeste 12 Nordeste 0 925.9 -1.1 60
2019-03-31 01:00:00 8.6 2 Nordeste 6 Sudeste 0 926.2 -0.8 53
2019-03-31 00:00:00 11.6 4 Este 16 Sudeste 0 926.8 0 44
2019-03-30 23:00:00 11.8 0 Calma 11 Sur 0 927 0.5 45
2019-03-30 22:00:00 11.5 5 Nordeste 13 Nordeste 0 927 0.6 39
2019-03-30 21:00:00 11.2 4 Nordeste 11 Nordeste 0 926.8 0.6 40
2019-03-30 20:00:00 13.8 2 Oeste 7 Sudeste 0 926.5 0.1 32
2019-03-30 19:00:00 16.8 5 Sudeste 15 Sudeste 0 926.4 -0.5 21
2019-03-30 18:00:00 18.5 11 Este 16 Este 0 926.2 -1.5 22
2019-03-30 17:00:00 20.7 6 Norte 15 Oeste 0 926.4 -2 20
2019-03-30 16:00:00 20.7 6 Oeste 18 Oeste 0 926.9 -2.2 22
2019-03-30 15:00:00 19.9 8 Sudeste 17 Sur 0 927.7 -2 22
2019-03-30 14:00:00 19.9 10 Sudoeste 19 Sur 0 928.4 -1.7 26
2019-03-30 13:00:00 19.7 8 Sudoeste 18 Oeste 0 929.1 -1.1 23
2019-03-30 12:00:00 18.5 9 Sudoeste 16 Sudoeste 0 929.7 -0.5 27
2019-03-30 11:00:00 16.1 6 Sudoeste 15 Sudoeste 0 930.1 0.1 35
2019-03-30 10:00:00 13 8 Sudoeste 14 Sudoeste 0 930.2 0.3 38
2019-03-30 09:00:00 9 4 Sur 9 Sudeste 0 930.2 0.4 47
2019-03-30 08:00:00 4.6 5 Sur 9 Sur 0 930 0.2 58
2019-03-30 07:00:00 4.1 5 Sur 10 Sur 0 929.9 -0.2 57
2019-03-30 06:00:00 3.8 6 Sur 9 Sur 0 929.8 -0.6 58
2019-03-30 05:00:00 3.5 4 Sur 6 Sur 0 929.8 -0.9 62
2019-03-30 04:00:00 3.6 4 Sur 5 Sur 0 930.1 -0.8 62
2019-03-30 03:00:00 4.6 4 Sudoeste 8 Oeste 0 930.4 -0.7 56
2019-03-30 02:00:00 5.2 4 Sur 6 Sur 0 930.7 -0.5 56
2019-03-30 01:00:00 5.9 4 Sur 8 Sur 0 930.9 -0.2 55
2019-03-30 00:00:00 6.9 4 Sur 10 Sudoeste 0 931.1 0.2 52
2019-03-29 23:00:00 8.1 6 Sur 10 Sur 0 931.2 0.6 49
2019-03-29 22:00:00 9 6 Sur 18 Sudoeste 0 931.1 0.5 47
2019-03-29 21:00:00 10.6 3 Sudeste 11 Sudoeste 0 930.9 0.4 42
2019-03-29 20:00:00 13.3 5 Norte 6 Norte 0 930.6 0 33
2019-03-29 19:00:00 16.6 4 Norte 9 Noroeste 0 930.6 -0.4 27
2019-03-29 18:00:00 18.7 5 Norte 14 Nordeste 0 930.5 -1.2 24
2019-03-29 17:00:00 19.4 3 Oeste 14 Noroeste 0 930.6 -1.7 19
2019-03-29 16:00:00 19.6 5 Noroeste 14 Oeste 0 931 -1.9 26
2019-03-29 15:00:00 19.5 5 Sur 17 Sudoeste 0 931.7 -1.6 26
2019-03-29 14:00:00 19.3 9 Sudoeste 20 Oeste 0 932.3 -1.4 28
2019-03-29 13:00:00 18.3 12 Oeste 21 Oeste 0 932.9 -0.9 31
2019-03-29 12:00:00 17.2 9 Oeste 17 Sudoeste 0 933.3 -0.4 33
2019-03-29 11:00:00 14.8 5 Sudoeste 12 Oeste 0 933.7 0.1 38
2019-03-29 10:00:00 11.1 7 Este 13 Nordeste 0 933.8 0.3 53
2019-03-29 09:00:00 6.8 9 Nordeste 14 Nordeste 0 933.7 0.5 68
2019-03-29 08:00:00 3 10 Nordeste 16 Nordeste 0 933.6 0.4 78
2019-03-29 07:00:00 0.9 6 Nordeste 15 Nordeste 0 933.5 0.3 82
2019-03-29 06:00:00 2.2 9 Nordeste 14 Nordeste 0 933.2 -0.1 80
2019-03-29 05:00:00 2.7 8 Nordeste 14 Nordeste 0 933.2 -0.4 76
2019-03-29 04:00:00 3.2 10 Nordeste 14 Nordeste 0 933.2 -0.5 74
2019-03-29 03:00:00 4.6 11 Nordeste 14 Nordeste 0 933.3 -0.8 66
2019-03-29 02:00:00 5.7 8 Este 18 Este 0 933.6 -0.4 61
2019-03-29 01:00:00 6.8 13 Nordeste 19 Nordeste 0 933.7 -0.4 56
2019-03-29 00:00:00 8.1 14 Nordeste 22 Este 0 934.1 0.1 51
2019-03-28 23:00:00 7.7 9 Este 14 Este 0 934 0.4 50
2019-03-28 22:00:00 8.5 10 Nordeste 17 Nordeste 0 934.1 0.6 47
2019-03-28 21:00:00 9.7 9 Nordeste 15 Nordeste 0 934 0.4 42
2019-03-28 20:00:00 11.2 9 Nordeste 19 Nordeste 0 933.6 -0.2 40
2019-03-28 19:00:00 14.9 13 Nordeste 19 Nordeste 0 933.5 -0.8 30
2019-03-28 18:00:00 17.5 11 Nordeste 21 Nordeste 0 933.6 -1.4 24
2019-03-28 17:00:00 18 11 Nordeste 22 Nordeste 0 933.8 -2 26
2019-03-28 16:00:00 17.8 11 Nordeste 22 Nordeste 0 934.3 -2 28
2019-03-28 15:00:00 17.1 9 Nordeste 21 Nordeste 0 935 -1.6 28
2019-03-28 14:00:00 16.6 11 Nordeste 23 Nordeste 0 935.8 -1.3 35
2019-03-28 13:00:00 15.3 12 Nordeste 23 Nordeste 0 936.3 -0.5 38
2019-03-28 12:00:00 14.6 14 Nordeste 22 Nordeste 0 936.6 -0.3 36
2019-03-28 11:00:00 11.2 15 Nordeste 27 Nordeste 0 937.1 0.3 42
2019-03-28 10:00:00 9 18 Nordeste 28 Nordeste 0 936.8 0.3 43
2019-03-28 09:00:00 5.7 13 Nordeste 24 Nordeste 0 936.9 0.9 50
2019-03-28 08:00:00 1.6 11 Nordeste 21 Nordeste 0 936.8 1.1 64
2019-03-28 07:00:00 0.6 14 Nordeste 23 Nordeste 0 936.5 0.8 63
2019-03-28 06:00:00 1.2 11 Nordeste 23 Este 0 936 0.4 56
2019-03-28 05:00:00 2.1 14 Nordeste 21 Nordeste 0 935.7 0 52
2019-03-28 04:00:00 3.2 15 Nordeste 25 Nordeste 0 935.7 -0.2 48
2019-03-28 03:00:00 4.2 17 Nordeste 31 Nordeste 0 935.6 0 48
2019-03-28 02:00:00 5.3 18 Nordeste 32 Nordeste 0 935.7 0.5 44
2019-03-28 01:00:00 5.6 17 Nordeste 24 Nordeste 0 935.9 1 49
2019-03-28 00:00:00 6.3 14 Nordeste 24 Nordeste 0 935.6 1.3 47
2019-03-27 23:00:00 8.1 16 Nordeste 27 Nordeste 0 935.2 1.4 37
2019-03-27 22:00:00 9.3 18 Nordeste 28 Nordeste 0 934.9 1.5 32
2019-03-27 21:00:00 10.3 17 Nordeste 25 Nordeste 0 934.3 1.1 33
2019-03-27 20:00:00 12 11 Nordeste 22 Nordeste 0 933.8 0.5 29
2019-03-27 19:00:00 15.5 15 Nordeste 23 Este 0 933.4 -0.1 24
2019-03-27 18:00:00 17.7 15 Nordeste 27 Nordeste 0 933.2 -0.7 21
2019-03-27 17:00:00 18.1 18 Nordeste 31 Nordeste 0 933.3 -1.1 25
2019-03-27 16:00:00 17.8 16 Nordeste 31 Nordeste 0 933.5 -1.3 23
2019-03-27 15:00:00 17.6 14 Este 27 Nordeste 0 933.9 -1.2 27
2019-03-27 14:00:00 16.2 14 Nordeste 24 Nordeste 0 934.4 -0.6 28
2019-03-27 13:00:00 15.3 10 Nordeste 23 Nordeste 0 934.8 0 35
2019-03-27 12:00:00 13.4 13 Nordeste 21 Nordeste 0 935.1 0.4 39
2019-03-27 11:00:00 10.8 12 Nordeste 23 Nordeste 0 935 0.7 43
2019-03-27 10:00:00 8.2 14 Nordeste 26 Nordeste 0 934.8 1.5 48
2019-03-27 09:00:00 5.2 16 Nordeste 22 Nordeste 0 934.7 2.1 58
2019-03-27 08:00:00 1.7 8 Este 25 Nordeste 0 934.3 2.1 68
2019-03-27 07:00:00 0.4 20 Nordeste 31 Nordeste 0 933.3 1.2 70
2019-03-27 06:00:00 0.8 21 Nordeste 29 Nordeste 0 932.6 0.6 66
2019-03-27 05:00:00 1.1 21 Nordeste 32 Nordeste 0 932.2 0.3 61
2019-03-27 04:00:00 1.8 19 Nordeste 34 Nordeste 0 932.1 0.5 54
2019-03-27 03:00:00 2.6 23 Nordeste 33 Este 0 932 0.6 47
2019-03-27 02:00:00 4 24 Nordeste 36 Nordeste 0 931.9 0.8 39
2019-03-27 01:00:00 4.7 22 Nordeste 31 Nordeste 0 931.6 1 37
2019-03-27 00:00:00 5.8 21 Nordeste 35 Este 0 931.4 1.4 35
2019-03-26 23:00:00 7 19 Nordeste 36 Nordeste 0 931.1 2 35
2019-03-26 22:00:00 8.6 22 Nordeste 32 Nordeste 0 930.6 2 32
2019-03-26 21:00:00 10.3 23 Nordeste 39 Nordeste 0 930 2 28
2019-03-26 20:00:00 12.6 26 Nordeste 36 Nordeste 0 929.1 0.8 27
2019-03-26 19:00:00 15.1 22 Nordeste 40 Nordeste 0 928.6 0 26
2019-03-26 18:00:00 17.4 24 Nordeste 48 Nordeste 0 928 -1 25
2019-03-26 17:00:00 18.1 30 Nordeste 46 Este 0 928.3 -1.1 24
2019-03-26 16:00:00 18 27 Nordeste 46 Nordeste 0 928.6 -1.4 26
2019-03-26 15:00:00 17.4 23 Nordeste 44 Nordeste 0 929 -1.5 30
2019-03-26 14:00:00 15.9 26 Nordeste 43 Nordeste 0 929.4 -1.6 34
2019-03-26 13:00:00 14 27 Nordeste 49 Nordeste 0 930 -0.9 41
2019-03-26 12:00:00 12.1 27 Nordeste 44 Nordeste 0 930.5 -0.3 48
2019-03-26 11:00:00 10.1 25 Nordeste 43 Nordeste 0 931 0.2 55
2019-03-26 10:00:00 8 26 Nordeste 46 Nordeste 0 930.9 0.2 59
2019-03-26 09:00:00 5.4 30 Nordeste 48 Este 0 930.8 0.2 68
2019-03-26 08:00:00 2.5 26 Nordeste 42 Nordeste 0 930.8 0 81
2019-03-26 07:00:00 1.2 23 Nordeste 36 Nordeste 0 930.7 -0.2 83
2019-03-26 06:00:00 1.2 22 Nordeste 35 Nordeste 0 930.6 -0.6 81
2019-03-26 05:00:00 1.9 24 Nordeste 46 Nordeste 0 930.8 -0.7 76
2019-03-26 04:00:00 2.4 28 Nordeste 44 Nordeste 0 930.9 -0.9 71
2019-03-26 03:00:00 3.1 31 Nordeste 46 Este 0 931.2 -0.6 65
2019-03-26 02:00:00 3.6 26 Nordeste 39 Nordeste 0 931.5 -0.1 66
2019-03-26 01:00:00 4.6 22 Nordeste 39 Nordeste 0 931.8 0.4 63
2019-03-26 00:00:00 5.7 25 Nordeste 35 Nordeste 0 931.8 0.5 60
2019-03-25 23:00:00 6.9 21 Nordeste 36 Nordeste 0 931.6 1 54
2019-03-25 22:00:00 8.1 24 Nordeste 38 Nordeste 0 931.4 0.8 49
2019-03-25 21:00:00 9.4 21 Nordeste 35 Nordeste 0 931.3 0.8 53
2019-03-25 20:00:00 10.8 20 Nordeste 28 Nordeste 0 930.6 -0.1 46
2019-03-25 19:00:00 13.5 15 Nordeste 35 Nordeste 0 930.6 -0.4 36
2019-03-25 18:00:00 15.5 28 Nordeste 46 Nordeste 0 930.5 -1 28
2019-03-25 17:00:00 17.7 23 Nordeste 40 Nordeste 0 930.7 -1.7 31
2019-03-25 16:00:00 18.1 24 Nordeste 40 Nordeste 0 931 -2.2 29
2019-03-25 15:00:00 17.9 23 Nordeste 38 Nordeste 0 931.5 -2.3 36
2019-03-25 14:00:00 16.9 23 Nordeste 35 Nordeste 0 932.4 -1.7 42
2019-03-25 13:00:00 16.2 21 Nordeste 33 Nordeste 0 933.2 -0.9 46
2019-03-25 12:00:00 14.9 17 Nordeste 34 Nordeste 0 933.8 0.2 52
2019-03-25 11:00:00 13.5 16 Nordeste 27 Nordeste 0 934.1 0.7 55
2019-03-25 10:00:00 11 13 Nordeste 29 Nordeste 0 934.1 1 60
2019-03-25 09:00:00 8.2 18 Nordeste 29 Nordeste 0 933.6 0.8 68
2019-03-25 08:00:00 4.9 18 Nordeste 30 Nordeste 0 933.4 0.6 81
2019-03-25 07:00:00 4.6 22 Nordeste 33 Nordeste 0 933.1 0.2 82
2019-03-25 06:00:00 5 21 Nordeste 30 Nordeste 0 932.8 -0.5 82
2019-03-25 05:00:00 5.8 19 Nordeste 30 Nordeste 0 932.8 -0.5 80
2019-03-25 04:00:00 6.4 18 Nordeste 27 Nordeste 0 932.9 -0.5 77
2019-03-25 03:00:00 7.5 13 Nordeste 22 Nordeste 0 933.3 -0.2 68
2019-03-25 02:00:00 8 17 Nordeste 23 Nordeste 0 933.3 0 61
2019-03-25 01:00:00 8.4 14 Este 22 Este 0 933.4 0.3 56
2019-03-25 00:00:00 9.5 14 Este 27 Este 0 933.5 0.9 46
2019-03-24 23:00:00 9.7 13 Nordeste 17 Nordeste 0 933.3 1 42
2019-03-24 22:00:00 10 8 Nordeste 14 Nordeste 0 933.1 0.9 44
2019-03-24 21:00:00 12.2 12 Nordeste 14 Nordeste 0 932.6 0.4 39
2019-03-24 20:00:00 13.4 10 Nordeste 12 Nordeste 0 932.3 0.3 39
2019-03-24 19:00:00 16.7 9 Nordeste 25 Este 0 932.2 -0.3 32
2019-03-24 18:00:00 18.8 20 Este 32 Este 0 932.2 -0.8 27
2019-03-24 17:00:00 19.8 18 Nordeste 34 Nordeste 0 932 -1.5 28
2019-03-24 16:00:00 19.9 18 Este 37 Este 0 932.5 -1.6 30
2019-03-24 15:00:00 19.5 20 Nordeste 38 Nordeste 0 933 -1.7 31
2019-03-24 14:00:00 18.9 25 Nordeste 42 Nordeste 0 933.5 -1.4 33
2019-03-24 13:00:00 18.2 21 Este 39 Este 0 934.1 -0.8 35
2019-03-24 12:00:00 17.5 22 Este 31 Este 0 934.7 0.2 38
2019-03-24 11:00:00 15.8 22 Este 33 Este 0 934.9 0.8 35
2019-03-24 10:00:00 13.4 21 Este 28 Este 0 934.9 1.2 49
2019-03-24 09:00:00 9.7 20 Este 31 Este 0 934.5 1.1 59
2019-03-24 08:00:00 7 16 Nordeste 26 Este 0 934.1 1 65
2019-03-24 07:00:00 6.3 14 Nordeste 20 Nordeste 0 933.7 0.7 66
2019-03-24 06:00:00 7.7 13 Este 19 Este 0 933.4 0.3 62
2019-03-24 05:00:00 8.8 14 Este 19 Este 0 933.1 0.1 60
2019-03-24 04:00:00 9.3 13 Este 19 Este 0 933 -0.3 58
2019-03-24 03:00:00 9.9 9 Este -- -- 0 933.1 -0.5 56
2019-03-24 02:00:00 9.3 12 Este 17 Este 0 933 -0.8 58
2019-03-24 01:00:00 9.2 13 Este 18 Este 0 933.3 -0.4 56
2019-03-24 00:00:00 9.5 10 Nordeste 15 Este 0 933.6 0.2 56
2019-03-23 23:00:00 10.8 10 Este 18 Este 0 933.8 0.9 52
2019-03-23 22:00:00 11.8 12 Este 18 Este 0 933.7 1 50
2019-03-23 21:00:00 13.3 8 Este 15 Este 0 933.4 0.8 46
2019-03-23 20:00:00 15.2 9 Nordeste 21 Nordeste 0 932.9 0.4 41
2019-03-23 19:00:00 16.6 14 Nordeste 26 Nordeste 0 932.7 -0.5 34
2019-03-23 18:00:00 18.6 15 Nordeste 27 Nordeste 0 932.6 -1 30
2019-03-23 17:00:00 19.7 14 Nordeste 23 Nordeste 0 932.5 -2 29
2019-03-23 16:00:00 18.9 14 Este 29 Nordeste 0 933.2 -2.1 28
2019-03-23 15:00:00 19.8 10 Nordeste 27 Nordeste 0 933.6 -2.3 28
2019-03-23 14:00:00 18.2 9 Nordeste 22 Este 0 934.5 -1.8 34
2019-03-23 13:00:00 17.7 8 Nordeste 15 Nordeste 0 935.3 -1 33
2019-03-23 12:00:00 16.1 7 Este 15 Nordeste 0 935.9 -0.3 37
2019-03-23 11:00:00 14.7 6 Nordeste 14 Nordeste 0 936.3 0.4 45
2019-03-23 10:00:00 11.9 8 Nordeste 15 Este 0 936.3 0.8 54
2019-03-23 09:00:00 7.9 12 Este 19 Este 0 936.2 0.7 58
2019-03-23 08:00:00 3.9 14 Este 21 Este 0 935.9 0.3 67
2019-03-23 07:00:00 2.7 8 Este 17 Este 0 935.5 -0.2 68
2019-03-23 06:00:00 2.7 12 Nordeste 15 Nordeste 0 935.5 -0.6 69
2019-03-23 05:00:00 3.4 7 Norte 13 Nordeste 0 935.6 -0.6 66
2019-03-23 04:00:00 4.3 4 Sur 10 Sur 0 935.7 -0.6 61
2019-03-23 03:00:00 5.1 5 Sudeste 12 Sur 0 936.1 -0.4 59
2019-03-23 02:00:00 5.7 4 Sudeste 18 Este 0 936.2 -0.4 57
2019-03-23 01:00:00 6.6 14 Este 19 Este 0 936.3 -0.1 55
2019-03-23 00:00:00 6.3 10 Nordeste 14 Nordeste 0 936.5 0.4 56
2019-03-22 23:00:00 6.8 10 Nordeste 15 Nordeste 0 936.6 1 55
2019-03-22 22:00:00 8.5 11 Nordeste 15 Nordeste 0 936.4 1.1 47
2019-03-22 21:00:00 9.2 9 Nordeste 14 Nordeste 0 936.1 1.1 48
2019-03-22 20:00:00 10.4 9 Norte 13 Norte 0 935.6 0.3 48
2019-03-22 19:00:00 13.8 9 Norte 18 Norte 0 935.3 -0.3 41
2019-03-22 18:00:00 16.5 10 Nordeste 27 Nordeste 0 935 -0.8 28
2019-03-22 17:00:00 17.2 6 Norte 19 Nordeste 0 935.3 -1.1 26
2019-03-22 16:00:00 17.9 4 Este 17 Oeste 0 935.6 -1.5 25
2019-03-22 15:00:00 16.6 9 Nordeste 25 Nordeste 0 935.8 -1.6 28
2019-03-22 14:00:00 17 5 Sur 18 Nordeste 0 936.4 -1.1 28
2019-03-22 13:00:00 15.8 10 Nordeste 18 Nordeste 0 937.1 -0.2 35
2019-03-22 12:00:00 14.6 8 Nordeste 17 Nordeste 0 937.4 0.3 37
2019-03-22 11:00:00 13.4 7 Nordeste 14 Nordeste 0 937.5 0.5 44
2019-03-22 10:00:00 10.1 11 Este 17 Este 0 937.3 0.7 53
2019-03-22 09:00:00 6 11 Este 17 Este 0 937.1 0.8 62
2019-03-22 08:00:00 1.6 11 Este 17 Nordeste 0 937 1.1 73
2019-03-22 07:00:00 0.1 7 Nordeste 10 Nordeste 0 936.6 0.7 76
2019-03-22 06:00:00 -0.1 3 Nordeste 8 Norte 0 936.3 0.4 75
2019-03-22 05:00:00 0.7 0 Calma 8 Noroeste 0 935.9 0.1 74
2019-03-22 04:00:00 1.7 0 Calma 5 Sur 0 935.9 0.1 70
2019-03-22 03:00:00 2.6 4 Este 7 Nordeste 0 935.9 -0.2 65
2019-03-22 02:00:00 3.7 5 Este 10 Este 0 935.8 -0.1 61
2019-03-22 01:00:00 3.9 2 Este 10 Este 0 935.8 0.2 60
2019-03-22 00:00:00 5 4 Sudeste 12 Este 0 936.1 0.7 55
2019-03-21 23:00:00 5.4 6 Este 10 Este 0 935.9 0.7 56
2019-03-21 22:00:00 6.4 5 Este 8 Este 0 935.6 0.7 53
2019-03-21 21:00:00 7.2 3 Este 5 Este 0 935.4 0.7 50
2019-03-21 20:00:00 9.8 3 Este 8 Este 0 935.2 0.2 44
2019-03-21 19:00:00 13.2 3 Norte 9 Nordeste 0 934.9 -0.5 31
2019-03-21 18:00:00 14.9 5 Nordeste 14 Norte 0 934.7 -1.1 32
2019-03-21 17:00:00 15.8 8 Noroeste 18 Noroeste 0 935 -1.5 30
2019-03-21 16:00:00 15.3 10 Noroeste 24 Norte 0 935.4 -1.9 31
2019-03-21 15:00:00 15.1 10 Norte 19 Nordeste 0 935.8 -1.8 40
2019-03-21 14:00:00 14.2 10 Nordeste 20 Nordeste 0 936.5 -1.2 40
2019-03-21 13:00:00 13.2 8 Nordeste 19 Nordeste 0 937.3 -0.4 49
2019-03-21 12:00:00 11.7 12 Este 24 Nordeste 0 937.6 -0.1 49
2019-03-21 11:00:00 9.3 15 Este 24 Este 0 937.7 -0.1 53
2019-03-21 10:00:00 6.3 17 Este 28 Nordeste 0 937.7 0.2 61
2019-03-21 09:00:00 3.2 15 Este 25 Este 0 937.7 0.4 73
2019-03-21 08:00:00 -0.5 13 Nordeste 21 Este 0 937.8 1 86
2019-03-21 07:00:00 -1 14 Nordeste 24 Nordeste 0 937.5 0.7 86
2019-03-21 06:00:00 -0.9 15 Nordeste 23 Nordeste 0 937.3 0.1 84
2019-03-21 05:00:00 -0.5 15 Nordeste 24 Nordeste 0 936.8 -0.4 81
2019-03-21 04:00:00 0.6 14 Nordeste 21 Nordeste 0 936.8 -0.4 77
2019-03-21 03:00:00 1.1 8 Norte 23 Nordeste 0 937.2 -0.1 72
2019-03-21 02:00:00 1.9 15 Nordeste 24 Nordeste 0 937.2 -0.2 68
2019-03-21 01:00:00 2.8 15 Nordeste 23 Nordeste 0 937.2 0 64
2019-03-21 00:00:00 3.7 15 Nordeste 22 Nordeste 0 937.3 0.2 63